createdAt,value
2022-11-10T00:00:01.355Z,11.97
2022-11-10T00:01:01.368Z,11.95
2022-11-10T00:02:01.348Z,12.00
2022-11-10T00:03:01.343Z,11.84
2022-11-10T00:04:01.397Z,11.84
2022-11-10T00:05:01.338Z,11.84
2022-11-10T00:06:01.338Z,11.88
2022-11-10T00:07:01.397Z,11.81
2022-11-10T00:08:01.330Z,11.97
2022-11-10T00:09:01.331Z,11.83
2022-11-10T00:10:01.330Z,11.86
2022-11-10T00:11:01.419Z,11.88
2022-11-10T00:12:01.320Z,11.99
2022-11-10T00:13:04.374Z,11.90
2022-11-10T00:14:01.349Z,11.86
2022-11-10T00:15:01.322Z,11.78
2022-11-10T00:16:01.316Z,11.99
2022-11-10T00:17:01.337Z,11.97
2022-11-10T00:18:01.308Z,11.95
2022-11-10T00:19:01.305Z,11.94
2022-11-10T00:20:01.313Z,11.86
2022-11-10T00:21:01.300Z,11.97
2022-11-10T00:22:01.301Z,11.86
2022-11-10T00:23:01.325Z,11.87
2022-11-10T00:24:01.296Z,11.84
2022-11-10T00:25:01.289Z,11.86
2022-11-10T00:26:01.293Z,11.87
2022-11-10T00:27:01.287Z,11.95
2022-11-10T00:28:01.284Z,11.86
2022-11-10T00:29:01.283Z,11.88
2022-11-10T00:30:01.300Z,12.02
2022-11-10T00:31:01.282Z,11.84
2022-11-10T00:32:01.273Z,11.99
2022-11-10T00:33:01.361Z,11.86
2022-11-10T00:34:01.268Z,11.80
2022-11-10T00:35:01.267Z,11.99
2022-11-10T00:36:01.267Z,12.00
2022-11-10T00:37:01.261Z,11.95
2022-11-10T00:38:01.262Z,11.90
2022-11-10T00:39:01.259Z,11.81
2022-11-10T00:40:01.256Z,11.97
2022-11-10T00:41:01.253Z,11.81
2022-11-10T00:42:01.255Z,11.94
2022-11-10T00:43:01.249Z,11.88
2022-11-10T00:44:01.248Z,11.86
2022-11-10T00:45:01.242Z,11.86
2022-11-10T00:46:01.248Z,11.77
2022-11-10T00:47:01.240Z,11.75
2022-11-10T00:48:01.237Z,11.77
2022-11-10T00:49:01.255Z,11.78
2022-11-10T00:50:01.237Z,11.65
2022-11-10T00:51:01.230Z,11.73
2022-11-10T00:52:01.227Z,11.75
2022-11-10T00:53:01.230Z,11.62
2022-11-10T00:54:01.230Z,11.68
2022-11-10T00:55:01.224Z,11.65
2022-11-10T00:56:01.221Z,11.69
2022-11-10T00:57:01.219Z,11.65
2022-11-10T00:58:01.215Z,11.69
2022-11-10T00:59:01.226Z,11.69
2022-11-10T01:00:01.213Z,11.69
2022-11-10T01:01:01.249Z,11.68
2022-11-10T01:02:01.207Z,11.63
2022-11-10T01:03:01.199Z,11.62
2022-11-10T01:04:01.202Z,11.65
2022-11-10T01:05:01.216Z,11.66
2022-11-10T01:06:01.196Z,11.70
2022-11-10T01:07:01.368Z,11.60
2022-11-10T01:08:01.191Z,11.70
2022-11-10T01:09:01.233Z,11.65
2022-11-10T01:10:01.244Z,11.68
2022-11-10T01:11:01.232Z,11.63
2022-11-10T01:12:01.229Z,11.60
2022-11-10T01:13:01.230Z,11.60
2022-11-10T01:14:01.223Z,11.54
2022-11-10T01:15:01.174Z,11.51
2022-11-10T01:16:01.168Z,11.52
2022-11-10T01:17:01.167Z,11.57
2022-11-10T01:18:01.163Z,11.50
2022-11-10T01:19:01.165Z,11.47
2022-11-10T01:20:01.159Z,11.52
2022-11-10T01:21:01.175Z,11.47
2022-11-10T01:22:01.165Z,11.48
2022-11-10T01:23:01.152Z,11.48
2022-11-10T01:24:01.154Z,11.43
2022-11-10T01:25:01.146Z,11.45
2022-11-10T01:26:01.143Z,11.50
2022-11-10T01:27:01.145Z,11.40
2022-11-10T01:28:01.137Z,11.50
2022-11-10T01:29:01.137Z,11.50
2022-11-10T01:30:01.133Z,11.40
2022-11-10T01:31:01.134Z,11.48
2022-11-10T01:32:01.328Z,11.45
2022-11-10T01:33:01.126Z,11.44
2022-11-10T01:34:01.126Z,11.35
2022-11-10T01:35:01.122Z,11.43
2022-11-10T01:36:01.120Z,11.33
2022-11-10T01:37:01.137Z,11.36
2022-11-10T01:38:01.116Z,11.33
2022-11-10T01:39:01.128Z,11.36
2022-11-10T01:40:01.256Z,11.40
2022-11-10T01:41:01.112Z,11.29
2022-11-10T01:42:01.105Z,11.26
2022-11-10T01:43:01.107Z,11.22
2022-11-10T01:44:01.104Z,11.07
2022-11-10T01:45:01.100Z,11.14
2022-11-10T01:46:01.098Z,10.99
2022-11-10T01:47:01.101Z,11.02
2022-11-10T01:48:01.089Z,11.00
2022-11-10T01:49:01.091Z,10.92
2022-11-10T01:50:01.084Z,10.92
2022-11-10T01:51:01.084Z,10.75
2022-11-10T01:52:01.078Z,10.71
2022-11-10T01:53:01.104Z,10.61
2022-11-10T01:54:01.093Z,10.51
2022-11-10T01:55:01.083Z,10.40
2022-11-10T01:56:01.072Z,10.35
2022-11-10T01:57:01.071Z,10.23
2022-11-10T01:58:01.062Z,10.15
2022-11-10T01:59:01.063Z,10.15
2022-11-10T02:00:01.060Z,9.95
2022-11-10T02:01:01.110Z,9.89
2022-11-10T02:02:01.063Z,9.87
2022-11-10T02:03:01.049Z,9.76
2022-11-10T02:04:01.045Z,9.73
2022-11-10T02:05:01.043Z,9.72
2022-11-10T02:06:01.041Z,9.55
2022-11-10T02:07:01.062Z,9.54
2022-11-10T02:08:01.032Z,9.58
2022-11-10T02:09:01.050Z,9.66
2022-11-10T02:10:01.026Z,9.65
2022-11-10T02:11:01.032Z,9.68
2022-11-10T02:12:01.022Z,9.68
2022-11-10T02:13:01.023Z,9.59
2022-11-10T02:14:01.016Z,9.58
2022-11-10T02:15:01.013Z,9.47
2022-11-10T02:16:01.008Z,9.55
2022-11-10T02:17:01.008Z,9.61
2022-11-10T02:18:01.013Z,9.54
2022-11-10T02:19:01.005Z,9.44
2022-11-10T02:20:00.999Z,9.46
2022-11-10T02:21:00.998Z,9.41
2022-11-10T02:22:00.993Z,9.31
2022-11-10T02:23:00.991Z,9.29
2022-11-10T02:24:00.991Z,9.37
2022-11-10T02:25:01.017Z,9.32
2022-11-10T02:26:00.981Z,9.37
2022-11-10T02:27:00.977Z,9.43
2022-11-10T02:28:00.972Z,9.46
2022-11-10T02:29:00.980Z,9.48
2022-11-10T02:30:00.967Z,9.58
2022-11-10T02:31:00.963Z,9.56
2022-11-10T02:32:00.959Z,9.46
2022-11-10T02:33:00.959Z,9.48
2022-11-10T02:34:00.955Z,9.41
2022-11-10T02:35:00.950Z,9.48
2022-11-10T02:36:00.949Z,9.36
2022-11-10T02:37:00.948Z,9.39
2022-11-10T02:38:00.955Z,9.31
2022-11-10T02:39:00.944Z,9.36
2022-11-10T02:40:00.952Z,9.32
2022-11-10T02:41:00.961Z,9.37
2022-11-10T02:42:00.931Z,9.47
2022-11-10T02:43:00.926Z,9.41
2022-11-10T02:44:00.947Z,9.41
2022-11-10T02:45:00.925Z,9.41
2022-11-10T02:46:00.923Z,9.34
2022-11-10T02:47:00.916Z,9.36
2022-11-10T02:48:00.912Z,9.29
2022-11-10T02:49:00.909Z,9.26
2022-11-10T02:50:00.905Z,9.22
2022-11-10T02:51:00.906Z,9.28
2022-11-10T02:52:00.900Z,9.21
2022-11-10T02:53:00.900Z,9.23
2022-11-10T02:54:00.894Z,9.23
2022-11-10T02:55:00.891Z,9.21
2022-11-10T02:56:00.886Z,9.25
2022-11-10T02:57:00.900Z,9.29
2022-11-10T02:58:00.879Z,9.39
2022-11-10T02:59:00.875Z,9.44
2022-11-10T03:00:00.873Z,9.36
2022-11-10T03:01:00.908Z,9.41
2022-11-10T03:02:00.867Z,9.40
2022-11-10T03:03:00.864Z,9.32
2022-11-10T03:04:00.867Z,9.31
2022-11-10T03:05:00.855Z,9.34
2022-11-10T03:06:00.854Z,9.36
2022-11-10T03:07:00.997Z,9.34
2022-11-10T03:08:00.853Z,9.29
2022-11-10T03:09:00.848Z,9.18
2022-11-10T03:10:00.840Z,9.10
2022-11-10T03:11:00.839Z,9.02
2022-11-10T03:12:00.841Z,8.94
2022-11-10T03:13:00.851Z,8.87
2022-11-10T03:14:02.558Z,8.79
2022-11-10T03:15:00.826Z,8.73
2022-11-10T03:16:00.824Z,8.69
2022-11-10T03:17:00.819Z,8.82
2022-11-10T03:18:00.819Z,8.81
2022-11-10T03:19:00.822Z,8.67
2022-11-10T03:20:00.807Z,8.70
2022-11-10T03:21:00.808Z,8.60
2022-11-10T03:22:00.802Z,8.55
2022-11-10T03:23:00.800Z,8.55
2022-11-10T03:24:00.796Z,8.49
2022-11-10T03:25:00.791Z,8.51
2022-11-10T03:26:00.790Z,8.49
2022-11-10T03:27:00.786Z,8.58
2022-11-10T03:28:00.780Z,8.64
2022-11-10T03:29:00.800Z,8.61
2022-11-10T03:30:00.779Z,8.71
2022-11-10T03:31:00.773Z,8.61
2022-11-10T03:32:00.767Z,8.71
2022-11-10T03:33:00.768Z,8.84
2022-11-10T03:34:00.762Z,8.76
2022-11-10T03:35:00.760Z,8.85
2022-11-10T03:36:00.753Z,8.82
2022-11-10T03:37:00.750Z,8.91
2022-11-10T03:38:00.747Z,8.94
2022-11-10T03:39:00.747Z,8.94
2022-11-10T03:40:00.740Z,8.94
2022-11-10T03:42:00.734Z,8.89
2022-11-10T03:43:00.729Z,8.85
2022-11-10T03:44:00.727Z,8.85
2022-11-10T03:45:00.748Z,8.84
2022-11-10T03:46:00.720Z,8.92
2022-11-10T03:47:00.720Z,8.92
2022-11-10T03:48:00.713Z,9.02
2022-11-10T03:49:00.715Z,8.99
2022-11-10T03:50:00.706Z,8.97
2022-11-10T03:51:00.709Z,8.97
2022-11-10T03:52:00.700Z,8.94
2022-11-10T03:53:00.698Z,8.92
2022-11-10T03:54:00.695Z,8.85
2022-11-10T03:55:03.474Z,8.88
2022-11-10T03:56:00.686Z,8.82
2022-11-10T03:57:00.685Z,8.92
2022-11-10T03:58:00.678Z,8.88
2022-11-10T03:59:00.678Z,8.81
2022-11-10T04:00:00.683Z,8.76
2022-11-10T04:01:00.690Z,8.70
2022-11-10T04:02:00.763Z,8.73
2022-11-10T04:03:00.663Z,8.85
2022-11-10T04:04:00.658Z,8.82
2022-11-10T04:05:00.661Z,8.88
2022-11-10T04:06:00.656Z,8.84
2022-11-10T04:07:00.809Z,8.91
2022-11-10T04:08:00.647Z,8.92
2022-11-10T04:09:00.653Z,8.92
2022-11-10T04:10:00.638Z,8.94
2022-11-10T04:11:00.636Z,8.81
2022-11-10T04:12:00.632Z,8.94
2022-11-10T04:13:00.635Z,8.82
2022-11-10T04:14:00.621Z,8.82
2022-11-10T04:15:00.622Z,8.87
2022-11-10T04:16:00.618Z,8.85
2022-11-10T04:17:00.632Z,8.85
2022-11-10T04:18:00.610Z,8.73
2022-11-10T04:19:00.610Z,8.64
2022-11-10T04:20:00.601Z,8.61
2022-11-10T04:21:00.598Z,8.61
2022-11-10T04:22:00.597Z,8.55
2022-11-10T04:23:00.600Z,8.53
2022-11-10T04:24:00.587Z,8.55
2022-11-10T04:25:00.588Z,8.51
2022-11-10T04:26:00.579Z,8.33
2022-11-10T04:27:00.580Z,8.34
2022-11-10T04:28:00.572Z,8.31
2022-11-10T04:29:00.573Z,8.27
2022-11-10T04:30:00.568Z,8.24
2022-11-10T04:31:00.568Z,8.24
2022-11-10T04:32:00.560Z,8.20
2022-11-10T04:33:00.574Z,8.24
2022-11-10T04:34:00.557Z,8.19
2022-11-10T04:35:00.554Z,8.20
2022-11-10T04:36:00.545Z,8.23
2022-11-10T04:37:00.544Z,8.16
2022-11-10T04:38:00.537Z,8.28
2022-11-10T04:39:00.536Z,8.20
2022-11-10T04:40:00.535Z,8.20
2022-11-10T04:41:00.528Z,8.38
2022-11-10T04:42:02.650Z,8.34
2022-11-10T04:43:00.528Z,8.49
2022-11-10T04:44:00.517Z,8.42
2022-11-10T04:45:00.512Z,8.42
2022-11-10T04:46:00.515Z,8.44
2022-11-10T04:47:00.510Z,8.51
2022-11-10T04:48:00.501Z,8.48
2022-11-10T04:49:00.520Z,8.45
2022-11-10T04:50:00.494Z,8.34
2022-11-10T04:51:00.503Z,8.26
2022-11-10T04:52:00.537Z,8.16
2022-11-10T04:53:00.487Z,8.26
2022-11-10T04:54:00.480Z,8.19
2022-11-10T04:55:00.480Z,8.09
2022-11-10T04:56:00.473Z,7.98
2022-11-10T04:57:00.471Z,8.01
2022-11-10T04:58:00.466Z,7.95
2022-11-10T04:59:00.463Z,7.94
2022-11-10T05:00:00.462Z,7.77
2022-11-10T05:01:00.521Z,7.87
2022-11-10T05:02:00.450Z,7.88
2022-11-10T05:03:00.449Z,7.95
2022-11-10T05:04:00.444Z,7.85
2022-11-10T05:05:00.460Z,7.90
2022-11-10T05:06:00.434Z,7.93
2022-11-10T05:07:00.613Z,8.00
2022-11-10T05:08:00.430Z,8.12
2022-11-10T05:09:00.429Z,8.06
2022-11-10T05:10:00.421Z,8.15
2022-11-10T05:11:00.422Z,8.13
2022-11-10T05:12:00.514Z,8.15
2022-11-10T05:13:00.418Z,8.18
2022-11-10T05:14:00.405Z,8.10
2022-11-10T05:15:00.419Z,8.15
2022-11-10T05:16:00.401Z,8.24
2022-11-10T05:17:00.547Z,8.27
2022-11-10T05:18:00.391Z,8.30
2022-11-10T05:19:00.395Z,8.24
2022-11-10T05:20:00.385Z,8.41
2022-11-10T05:21:00.407Z,8.31
2022-11-10T05:22:00.529Z,8.36
2022-11-10T05:23:00.379Z,8.36
2022-11-10T05:24:00.368Z,8.38
2022-11-10T05:25:00.365Z,8.33
2022-11-10T05:26:00.363Z,8.26
2022-11-10T05:27:00.362Z,8.20
2022-11-10T05:28:00.353Z,8.33
2022-11-10T05:29:00.352Z,8.34
2022-11-10T05:30:00.350Z,8.24
2022-11-10T05:31:00.348Z,8.33
2022-11-10T05:32:00.345Z,8.45
2022-11-10T05:33:00.343Z,8.48
2022-11-10T05:34:00.352Z,8.53
2022-11-10T05:35:00.350Z,8.51
2022-11-10T05:36:00.325Z,8.53
2022-11-10T05:37:00.339Z,8.46
2022-11-10T05:38:00.327Z,8.55
2022-11-10T05:39:00.311Z,8.55
2022-11-10T05:40:00.317Z,8.51
2022-11-10T05:41:00.324Z,8.52
2022-11-10T05:42:00.304Z,8.67
2022-11-10T05:43:00.302Z,8.67
2022-11-10T05:44:00.297Z,8.70
2022-11-10T05:45:00.301Z,8.70
2022-11-10T05:46:00.300Z,8.74
2022-11-10T05:47:00.285Z,8.76
2022-11-10T05:48:00.289Z,8.87
2022-11-10T05:49:00.279Z,8.76
2022-11-10T05:50:00.276Z,8.88
2022-11-10T05:51:00.280Z,8.88
2022-11-10T05:52:00.264Z,8.85
2022-11-10T05:53:00.277Z,8.89
2022-11-10T05:54:00.289Z,8.92
2022-11-10T05:55:00.254Z,8.94
2022-11-10T05:56:00.257Z,9.04
2022-11-10T05:57:00.260Z,9.11
2022-11-10T05:58:00.243Z,9.10
2022-11-10T05:59:00.235Z,9.16
2022-11-10T06:00:00.235Z,9.23
2022-11-10T06:01:00.232Z,9.19
2022-11-10T06:02:00.235Z,9.19
2022-11-10T06:03:00.233Z,9.18
2022-11-10T06:04:00.313Z,9.25
2022-11-10T06:05:00.218Z,9.23
2022-11-10T06:06:00.221Z,9.23
2022-11-10T06:07:00.271Z,9.19
2022-11-10T06:08:00.214Z,9.22
2022-11-10T06:09:00.221Z,9.26
2022-11-10T06:10:00.215Z,9.26
2022-11-10T06:11:00.204Z,9.18
2022-11-10T06:12:00.194Z,9.22
2022-11-10T06:13:00.191Z,9.22
2022-11-10T06:14:00.185Z,9.16
2022-11-10T06:15:00.191Z,9.19
2022-11-10T06:16:00.178Z,9.19
2022-11-10T06:17:00.173Z,9.19
2022-11-10T06:18:00.187Z,9.19
2022-11-10T06:19:00.178Z,9.18
2022-11-10T06:20:00.164Z,9.08
2022-11-10T06:21:00.157Z,9.04
2022-11-10T06:22:05.009Z,9.08
2022-11-10T06:23:00.190Z,9.10
2022-11-10T06:24:00.155Z,9.14
2022-11-10T06:25:00.173Z,9.14
2022-11-10T06:26:00.147Z,9.10
2022-11-10T06:27:00.138Z,9.10
2022-11-10T06:28:00.136Z,9.21
2022-11-10T06:29:00.132Z,9.19
2022-11-10T06:30:00.133Z,9.18
2022-11-10T06:31:00.125Z,9.22
2022-11-10T06:32:00.120Z,9.21
2022-11-10T06:33:00.114Z,9.29
2022-11-10T06:34:00.115Z,9.28
2022-11-10T06:35:00.844Z,9.26
2022-11-10T06:36:00.108Z,9.28
2022-11-10T06:37:00.120Z,9.31
2022-11-10T06:38:00.102Z,9.31
2022-11-10T06:39:00.095Z,9.34
2022-11-10T06:40:00.096Z,9.34
2022-11-10T06:41:00.108Z,9.28
2022-11-10T06:42:00.089Z,9.28
2022-11-10T06:43:00.081Z,9.21
2022-11-10T06:44:00.091Z,9.16
2022-11-10T06:45:00.089Z,9.08
2022-11-10T06:46:00.092Z,9.06
2022-11-10T06:47:00.070Z,8.95
2022-11-10T06:48:00.069Z,8.89
2022-11-10T06:49:00.059Z,8.94
2022-11-10T06:50:00.063Z,8.89
2022-11-10T06:51:00.050Z,8.91
2022-11-10T06:52:00.048Z,8.94
2022-11-10T06:53:00.062Z,8.95
2022-11-10T06:54:00.054Z,8.99
2022-11-10T06:55:00.041Z,9.00
2022-11-10T06:56:00.034Z,8.99
2022-11-10T06:57:00.051Z,9.11
2022-11-10T06:58:00.029Z,9.04
2022-11-10T06:59:00.042Z,9.19
2022-11-10T07:00:00.035Z,9.10
2022-11-10T07:01:00.094Z,9.14
2022-11-10T07:02:00.013Z,9.18
2022-11-10T07:03:00.007Z,9.21
2022-11-10T07:04:18.721Z,9.21
2022-11-10T07:05:00.002Z,9.28
2022-11-10T07:06:00.001Z,9.29
2022-11-10T07:07:00.022Z,9.29
2022-11-10T07:07:59.997Z,9.23
2022-11-10T07:08:59.992Z,9.26
2022-11-10T07:10:05.699Z,9.29
2022-11-10T07:10:59.982Z,9.28
2022-11-10T07:11:59.978Z,9.22
2022-11-10T07:13:00.001Z,9.19
2022-11-10T07:13:59.968Z,9.14
2022-11-10T07:14:59.969Z,9.06
2022-11-10T07:15:59.963Z,9.00
2022-11-10T07:16:59.956Z,9.03
2022-11-10T07:17:59.957Z,8.97
2022-11-10T07:18:59.954Z,8.97
2022-11-10T07:19:59.948Z,9.00
2022-11-10T07:20:59.943Z,9.03
2022-11-10T07:21:59.940Z,9.02
2022-11-10T07:22:59.945Z,9.02
2022-11-10T07:23:59.933Z,8.99
2022-11-10T07:24:59.933Z,9.00
2022-11-10T07:25:59.927Z,8.97
2022-11-10T07:26:59.921Z,9.00
2022-11-10T07:27:59.923Z,9.02
2022-11-10T07:28:59.946Z,9.03
2022-11-10T07:29:59.916Z,9.14
2022-11-10T07:30:59.908Z,9.04
2022-11-10T07:31:59.908Z,9.18
2022-11-10T07:32:59.899Z,9.19
2022-11-10T07:33:59.896Z,9.16
2022-11-10T07:34:59.895Z,9.21
2022-11-10T07:35:59.893Z,9.25
2022-11-10T07:36:59.883Z,9.21
2022-11-10T07:37:59.883Z,9.31
2022-11-10T07:38:59.882Z,9.32
2022-11-10T07:39:59.946Z,9.29
2022-11-10T07:40:59.878Z,9.41
2022-11-10T07:41:59.868Z,9.43
2022-11-10T07:42:59.863Z,9.46
2022-11-10T07:43:59.860Z,9.47
2022-11-10T07:44:59.872Z,9.54
2022-11-10T07:45:59.854Z,9.46
2022-11-10T07:46:59.848Z,9.56
2022-11-10T07:47:59.848Z,9.55
2022-11-10T07:48:59.841Z,9.64
2022-11-10T07:49:59.840Z,9.64
2022-11-10T07:50:59.835Z,9.68
2022-11-10T07:51:59.832Z,9.72
2022-11-10T07:52:59.826Z,9.74
2022-11-10T07:53:59.823Z,9.83
2022-11-10T07:54:59.823Z,9.74
2022-11-10T07:55:59.823Z,9.79
2022-11-10T07:56:59.819Z,9.84
2022-11-10T07:57:59.812Z,9.80
2022-11-10T07:58:59.806Z,9.86
2022-11-10T07:59:59.801Z,9.94
2022-11-10T08:00:59.817Z,9.95
2022-11-10T08:01:59.881Z,10.02
2022-11-10T08:02:59.792Z,9.95
2022-11-10T08:03:59.789Z,9.95
2022-11-10T08:04:59.785Z,10.02
2022-11-10T08:05:59.782Z,10.10
2022-11-10T08:06:59.944Z,10.10
2022-11-10T08:07:59.776Z,10.12
2022-11-10T08:08:59.773Z,10.10
2022-11-10T08:09:59.774Z,10.09
2022-11-10T08:10:59.770Z,10.05
2022-11-10T08:11:59.768Z,10.15
2022-11-10T08:12:59.757Z,10.20
2022-11-10T08:13:59.763Z,10.26
2022-11-10T08:14:59.754Z,10.25
2022-11-10T08:15:59.747Z,10.26
2022-11-10T08:16:59.765Z,10.17
2022-11-10T08:17:59.744Z,10.19
2022-11-10T08:18:59.739Z,10.20
2022-11-10T08:19:59.742Z,10.25
2022-11-10T08:20:59.732Z,10.28
2022-11-10T08:21:59.732Z,10.22
2022-11-10T08:22:59.727Z,10.25
2022-11-10T08:23:59.724Z,10.35
2022-11-10T08:24:59.717Z,10.22
2022-11-10T08:25:59.719Z,10.26
2022-11-10T08:26:59.712Z,10.30
2022-11-10T08:27:59.711Z,10.22
2022-11-10T08:28:59.704Z,10.20
2022-11-10T08:29:59.711Z,10.31
2022-11-10T08:31:05.133Z,10.34
2022-11-10T08:31:59.698Z,10.30
2022-11-10T08:32:59.713Z,10.40
2022-11-10T08:33:59.691Z,10.40
2022-11-10T08:34:59.686Z,10.38
2022-11-10T08:35:59.683Z,10.37
2022-11-10T08:36:59.678Z,10.44
2022-11-10T08:37:59.677Z,10.42
2022-11-10T08:38:59.676Z,10.46
2022-11-10T08:39:59.669Z,10.44
2022-11-10T08:40:59.667Z,10.56
2022-11-10T08:41:59.667Z,10.54
2022-11-10T08:42:59.668Z,10.51
2022-11-10T08:43:59.664Z,10.49
2022-11-10T08:44:59.654Z,10.71
2022-11-10T08:45:59.653Z,10.60
2022-11-10T08:46:59.654Z,10.64
2022-11-10T08:47:59.648Z,10.69
2022-11-10T08:48:59.662Z,10.67
2022-11-10T08:49:59.640Z,10.71
2022-11-10T08:50:59.635Z,10.68
2022-11-10T08:51:59.632Z,10.71
2022-11-10T08:52:59.630Z,10.74
2022-11-10T08:53:59.628Z,10.75
2022-11-10T08:54:59.623Z,10.87
2022-11-10T08:55:59.619Z,10.90
2022-11-10T08:56:59.621Z,10.82
2022-11-10T08:57:59.614Z,10.92
2022-11-10T08:58:59.624Z,10.92
2022-11-10T08:59:59.610Z,10.87
2022-11-10T09:00:59.606Z,10.94
2022-11-10T09:01:59.615Z,10.89
2022-11-10T09:02:59.599Z,11.02
2022-11-10T09:03:59.600Z,11.00
2022-11-10T09:04:59.690Z,11.10
2022-11-10T09:05:59.591Z,11.04
2022-11-10T09:06:59.690Z,11.14
2022-11-10T09:07:59.583Z,11.15
2022-11-10T09:08:59.587Z,11.27
2022-11-10T09:10:07.067Z,11.27
2022-11-10T09:10:59.575Z,11.22
2022-11-10T09:11:59.570Z,11.32
2022-11-10T09:12:59.568Z,11.27
2022-11-10T09:13:59.571Z,11.32
2022-11-10T09:14:59.565Z,11.29
2022-11-10T09:15:59.574Z,11.40
2022-11-10T09:16:59.559Z,11.36
2022-11-10T09:17:59.556Z,11.45
2022-11-10T09:18:59.556Z,11.43
2022-11-10T09:19:59.595Z,11.37
2022-11-10T09:20:59.563Z,11.40
2022-11-10T09:21:59.544Z,11.50
2022-11-10T09:22:59.540Z,11.47
2022-11-10T09:23:59.546Z,11.52
2022-11-10T09:24:59.541Z,11.54
2022-11-10T09:25:59.533Z,11.52
2022-11-10T09:26:59.534Z,11.54
2022-11-10T09:27:59.529Z,11.55
2022-11-10T09:28:59.529Z,11.51
2022-11-10T09:29:59.522Z,11.63
2022-11-10T09:30:59.535Z,11.62
2022-11-10T09:31:59.518Z,11.62
2022-11-10T09:32:59.511Z,11.66
2022-11-10T09:33:59.517Z,11.65
2022-11-10T09:34:59.507Z,11.77
2022-11-10T09:35:59.504Z,11.80
2022-11-10T09:36:59.517Z,11.80
2022-11-10T09:37:59.505Z,11.81
2022-11-10T09:38:59.497Z,11.75
2022-11-10T09:40:01.360Z,11.83
2022-11-10T09:40:59.494Z,11.84
2022-11-10T09:41:59.486Z,11.84
2022-11-10T09:42:59.483Z,11.83
2022-11-10T09:43:59.490Z,11.84
2022-11-10T09:44:59.479Z,11.83
2022-11-10T09:45:59.479Z,11.78
2022-11-10T09:46:59.485Z,11.83
2022-11-10T09:47:59.477Z,11.77
2022-11-10T09:48:59.470Z,11.75
2022-11-10T09:49:59.465Z,11.87
2022-11-10T09:50:59.471Z,11.78
2022-11-10T09:51:59.463Z,11.84
2022-11-10T09:52:59.479Z,11.86
2022-11-10T09:53:59.456Z,11.94
2022-11-10T09:54:59.456Z,11.88
2022-11-10T09:55:59.446Z,11.87
2022-11-10T09:56:59.447Z,11.87
2022-11-10T09:57:59.443Z,11.81
2022-11-10T09:58:59.442Z,11.94
2022-11-10T09:59:59.436Z,11.95
2022-11-10T10:00:59.578Z,11.91
2022-11-10T10:01:59.491Z,12.00
2022-11-10T10:02:59.435Z,11.87
2022-11-10T10:03:59.428Z,11.97
2022-11-10T10:04:59.437Z,11.94
2022-11-10T10:05:59.424Z,12.02
2022-11-10T10:07:10.857Z,11.97
2022-11-10T10:07:59.467Z,11.99
2022-11-10T10:08:59.432Z,11.95
2022-11-10T10:09:59.411Z,12.03
2022-11-10T10:10:59.411Z,12.03
2022-11-10T10:11:59.405Z,12.04
2022-11-10T10:12:59.403Z,12.03
2022-11-10T10:13:59.400Z,12.10
2022-11-10T10:14:59.399Z,12.09
2022-11-10T10:15:59.393Z,12.12
2022-11-10T10:16:59.390Z,12.15
2022-11-10T10:17:59.387Z,12.07
2022-11-10T10:18:59.390Z,12.15
2022-11-10T10:19:59.386Z,12.10
2022-11-10T10:20:59.387Z,12.12
2022-11-10T10:21:59.378Z,12.15
2022-11-10T10:22:59.378Z,12.24
2022-11-10T10:24:21.140Z,12.24
2022-11-10T10:24:59.390Z,12.20
2022-11-10T10:25:59.368Z,12.22
2022-11-10T10:26:59.368Z,12.21
2022-11-10T10:27:59.366Z,12.22
2022-11-10T10:28:59.359Z,12.22
2022-11-10T10:29:59.359Z,12.24
2022-11-10T10:30:59.356Z,12.32
2022-11-10T10:31:59.353Z,12.25
2022-11-10T10:32:59.351Z,12.22
2022-11-10T10:33:59.346Z,12.24
2022-11-10T10:34:59.346Z,12.35
2022-11-10T10:35:59.342Z,12.35
2022-11-10T10:36:59.341Z,12.35
2022-11-10T10:37:59.336Z,12.32
2022-11-10T10:38:59.335Z,12.36
2022-11-10T10:39:59.331Z,12.37
2022-11-10T10:40:59.357Z,12.32
2022-11-10T10:41:59.334Z,12.39
2022-11-10T10:42:59.327Z,12.40
2022-11-10T10:43:59.321Z,12.35
2022-11-10T10:44:59.365Z,12.36
2022-11-10T10:45:59.318Z,12.46
2022-11-10T10:46:59.332Z,12.32
2022-11-10T10:47:59.312Z,12.35
2022-11-10T10:49:26.907Z,12.39
2022-11-10T10:49:59.305Z,12.46
2022-11-10T10:50:59.305Z,12.54
2022-11-10T10:51:59.302Z,12.50
2022-11-10T10:52:59.301Z,12.60
2022-11-10T10:53:59.496Z,12.65
2022-11-10T10:54:59.297Z,12.57
2022-11-10T10:55:59.290Z,12.58
2022-11-10T10:56:59.339Z,12.55
2022-11-10T10:57:59.284Z,12.61
2022-11-10T10:58:59.282Z,12.57
2022-11-10T10:59:59.280Z,12.64
2022-11-10T11:00:59.348Z,12.53
2022-11-10T11:01:59.343Z,12.62
2022-11-10T11:03:04.294Z,12.62
2022-11-10T11:03:59.270Z,12.68
2022-11-10T11:04:59.272Z,12.73
2022-11-10T11:05:59.267Z,12.64
2022-11-10T11:06:59.390Z,12.67
2022-11-10T11:07:59.266Z,12.68
2022-11-10T11:09:00.120Z,12.68
2022-11-10T11:09:59.254Z,12.75
2022-11-10T11:10:59.270Z,12.67
2022-11-10T11:11:59.248Z,12.72
2022-11-10T11:12:59.268Z,12.72
2022-11-10T11:13:59.247Z,12.72
2022-11-10T11:14:59.247Z,12.64
2022-11-10T11:15:59.248Z,12.72
2022-11-10T11:16:59.293Z,12.73
2022-11-10T11:17:59.236Z,12.73
2022-11-10T11:18:59.240Z,12.75
2022-11-10T11:20:00.234Z,12.80
2022-11-10T11:20:59.229Z,12.78
2022-11-10T11:21:59.224Z,12.83
2022-11-10T11:22:59.225Z,12.78
2022-11-10T11:23:59.222Z,12.79
2022-11-10T11:24:59.218Z,12.79
2022-11-10T11:25:59.221Z,12.82
2022-11-10T11:26:59.223Z,12.87
2022-11-10T11:27:59.210Z,12.86
2022-11-10T11:28:59.226Z,12.94
2022-11-10T11:29:59.206Z,12.90
2022-11-10T11:30:59.205Z,12.93
2022-11-10T11:31:59.199Z,12.90
2022-11-10T11:32:59.199Z,12.94
2022-11-10T11:33:59.196Z,12.95
2022-11-10T11:34:59.202Z,12.91
2022-11-10T11:35:59.192Z,12.90
2022-11-10T11:36:59.192Z,12.87
2022-11-10T11:37:59.189Z,12.91
2022-11-10T11:38:59.185Z,12.80
2022-11-10T11:39:59.179Z,12.90
2022-11-10T11:40:59.179Z,12.78
2022-11-10T11:41:59.182Z,12.85
2022-11-10T11:42:59.174Z,12.80
2022-11-10T11:43:59.171Z,12.82
2022-11-10T11:44:59.195Z,12.85
2022-11-10T11:45:59.164Z,12.83
2022-11-10T11:46:59.169Z,12.93
2022-11-10T11:47:59.162Z,12.91
2022-11-10T11:48:59.162Z,12.79
2022-11-10T11:49:59.158Z,12.87
2022-11-10T11:50:59.159Z,12.85
2022-11-10T11:51:59.152Z,12.83
2022-11-10T11:52:59.160Z,12.93
2022-11-10T11:53:59.145Z,12.80
2022-11-10T11:54:59.145Z,12.83
2022-11-10T11:55:59.140Z,12.90
2022-11-10T11:56:59.146Z,12.87
2022-11-10T11:57:59.142Z,12.93
2022-11-10T11:58:59.142Z,12.93
2022-11-10T11:59:59.145Z,12.91
2022-11-10T12:00:59.153Z,12.87
2022-11-10T12:01:59.163Z,12.95
2022-11-10T12:02:59.168Z,12.91
2022-11-10T12:03:59.123Z,12.87
2022-11-10T12:04:59.126Z,12.90
2022-11-10T12:05:59.117Z,12.87
2022-11-10T12:06:59.130Z,12.91
2022-11-10T12:07:59.114Z,12.91
2022-11-10T12:08:59.112Z,12.98
2022-11-10T12:09:59.113Z,12.95
2022-11-10T12:10:59.105Z,12.97
2022-11-10T12:11:59.104Z,12.93
2022-11-10T12:12:59.104Z,13.03
2022-11-10T12:13:59.117Z,12.97
2022-11-10T12:14:59.099Z,13.03
2022-11-10T12:15:59.095Z,13.03
2022-11-10T12:16:59.116Z,13.00
2022-11-10T12:17:59.092Z,13.13
2022-11-10T12:18:59.090Z,13.04
2022-11-10T12:19:59.086Z,13.09
2022-11-10T12:20:59.086Z,13.18
2022-11-10T12:21:59.078Z,13.11
2022-11-10T12:22:59.081Z,13.08
2022-11-10T12:23:59.075Z,13.08
2022-11-10T12:24:59.080Z,13.19
2022-11-10T12:25:59.108Z,13.22
2022-11-10T12:26:59.069Z,13.23
2022-11-10T12:27:59.068Z,13.25
2022-11-10T12:28:59.065Z,13.20
2022-11-10T12:29:59.064Z,13.23
2022-11-10T12:31:01.764Z,13.23
2022-11-10T12:31:59.062Z,13.20
2022-11-10T12:32:59.077Z,13.25
2022-11-10T12:33:59.055Z,13.27
2022-11-10T12:34:59.056Z,13.27
2022-11-10T12:35:59.055Z,13.28
2022-11-10T12:36:59.048Z,13.28
2022-11-10T12:37:59.043Z,13.38
2022-11-10T12:39:00.385Z,13.33
2022-11-10T12:39:59.037Z,13.30
2022-11-10T12:40:59.040Z,13.37
2022-11-10T12:41:59.031Z,13.28
2022-11-10T12:42:59.038Z,13.27
2022-11-10T12:43:59.028Z,13.22
2022-11-10T12:44:59.037Z,13.27
2022-11-10T12:45:59.027Z,13.25
2022-11-10T12:46:59.025Z,13.25
2022-11-10T12:47:59.024Z,13.28
2022-11-10T12:48:59.042Z,13.28
2022-11-10T12:49:59.016Z,13.27
2022-11-10T12:50:59.016Z,13.28
2022-11-10T12:51:59.011Z,13.28
2022-11-10T12:52:59.007Z,13.30
2022-11-10T12:53:59.009Z,13.28
2022-11-10T12:54:59.259Z,13.38
2022-11-10T12:55:59.002Z,13.37
2022-11-10T12:56:59.004Z,13.33
2022-11-10T12:57:58.999Z,13.39
2022-11-10T12:58:58.999Z,13.39
2022-11-10T12:59:58.991Z,13.39
2022-11-10T13:00:59.036Z,13.38
2022-11-10T13:01:58.987Z,13.33
2022-11-10T13:02:58.996Z,13.38
2022-11-10T13:03:58.986Z,13.30
2022-11-10T13:04:59.009Z,13.30